sensor_id;sensor_type;location;lat;lon;timestamp;P1;durP1;ratioP1;P2;durP2;ratioP2
77248;SDS011;66280;45.124;20.718;2023-07-31T00:04:08;9.77;;;8.67;;
77248;SDS011;66280;45.124;20.718;2023-07-31T00:14:09;10.77;;;8.75;;
77248;SDS011;66280;45.124;20.718;2023-07-31T00:24:09;8.97;;;8.07;;
77248;SDS011;66280;45.124;20.718;2023-07-31T00:34:10;9.17;;;7.13;;
77248;SDS011;66280;45.124;20.718;2023-07-31T00:44:11;8.07;;;7.23;;
77248;SDS011;66280;45.124;20.718;2023-07-31T00:54:11;10.67;;;8.23;;
77248;SDS011;66280;45.124;20.718;2023-07-31T01:14:13;12.82;;;8.20;;
77248;SDS011;66280;45.124;20.718;2023-07-31T01:34:20;15.00;;;10.00;;
77248;SDS011;66280;45.124;20.718;2023-07-31T01:44:21;14.90;;;10.50;;
77248;SDS011;66280;45.124;20.718;2023-07-31T01:54:22;17.73;;;10.83;;
77248;SDS011;66280;45.124;20.718;2023-07-31T02:04:22;13.60;;;9.73;;
77248;SDS011;66280;45.124;20.718;2023-07-31T02:14:23;15.02;;;9.75;;
77248;SDS011;66280;45.124;20.718;2023-07-31T02:24:24;12.23;;;8.67;;
77248;SDS011;66280;45.124;20.718;2023-07-31T02:34:25;12.77;;;8.80;;
77248;SDS011;66280;45.124;20.718;2023-07-31T02:44:25;15.18;;;10.52;;
77248;SDS011;66280;45.124;20.718;2023-07-31T02:54:26;15.33;;;9.43;;
77248;SDS011;66280;45.124;20.718;2023-07-31T03:04:27;15.90;;;10.27;;
77248;SDS011;66280;45.124;20.718;2023-07-31T03:54:29;12.20;;;8.05;;
77248;SDS011;66280;45.124;20.718;2023-07-31T04:04:30;12.55;;;9.30;;
77248;SDS011;66280;45.124;20.718;2023-07-31T04:14:30;11.30;;;8.67;;
77248;SDS011;66280;45.124;20.718;2023-07-31T04:24:31;11.02;;;9.02;;
77248;SDS011;66280;45.124;20.718;2023-07-31T04:34:32;10.40;;;8.67;;
77248;SDS011;66280;45.124;20.718;2023-07-31T04:44:32;10.10;;;7.47;;
77248;SDS011;66280;45.124;20.718;2023-07-31T04:54:33;11.57;;;8.27;;
77248;SDS011;66280;45.124;20.718;2023-07-31T05:04:34;9.40;;;8.37;;
77248;SDS011;66280;45.124;20.718;2023-07-31T05:14:34;8.93;;;7.57;;
77248;SDS011;66280;45.124;20.718;2023-07-31T05:24:35;11.47;;;6.77;;
77248;SDS011;66280;45.124;20.718;2023-07-31T05:34:35;8.37;;;7.07;;
77248;SDS011;66280;45.124;20.718;2023-07-31T05:44:36;7.72;;;6.90;;
77248;SDS011;66280;45.124;20.718;2023-07-31T05:54:37;8.85;;;7.60;;
77248;SDS011;66280;45.124;20.718;2023-07-31T06:04:37;9.17;;;7.50;;
77248;SDS011;66280;45.124;20.718;2023-07-31T06:14:38;7.55;;;6.70;;
77248;SDS011;66280;45.124;20.718;2023-07-31T06:24:38;6.97;;;6.30;;
77248;SDS011;66280;45.124;20.718;2023-07-31T06:44:40;7.40;;;6.72;;
77248;SDS011;66280;45.124;20.718;2023-07-31T06:54:40;7.43;;;6.60;;
77248;SDS011;66280;45.124;20.718;2023-07-31T07:04:41;6.73;;;6.07;;
77248;SDS011;66280;45.124;20.718;2023-07-31T07:14:41;6.45;;;5.85;;
77248;SDS011;66280;45.124;20.718;2023-07-31T07:24:42;6.30;;;5.90;;
77248;SDS011;66280;45.124;20.718;2023-07-31T07:34:43;6.00;;;5.60;;
77248;SDS011;66280;45.124;20.718;2023-07-31T07:44:43;5.25;;;4.85;;
77248;SDS011;66280;45.124;20.718;2023-07-31T07:54:44;5.63;;;5.23;;
77248;SDS011;66280;45.124;20.718;2023-07-31T08:04:45;5.30;;;4.90;;
77248;SDS011;66280;45.124;20.718;2023-07-31T08:14:45;4.37;;;4.07;;
77248;SDS011;66280;45.124;20.718;2023-07-31T08:24:46;7.60;;;4.37;;
77248;SDS011;66280;45.124;20.718;2023-07-31T08:34:47;5.80;;;4.97;;
77248;SDS011;66280;45.124;20.718;2023-07-31T08:44:47;4.37;;;3.97;;
77248;SDS011;66280;45.124;20.718;2023-07-31T08:54:49;4.13;;;3.83;;
77248;SDS011;66280;45.124;20.718;2023-07-31T09:04:49;5.03;;;4.67;;
77248;SDS011;66280;45.124;20.718;2023-07-31T09:14:50;6.87;;;4.77;;
77248;SDS011;66280;45.124;20.718;2023-07-31T09:24:51;5.30;;;4.90;;
77248;SDS011;66280;45.124;20.718;2023-07-31T09:34:51;5.40;;;5.00;;
77248;SDS011;66280;45.124;20.718;2023-07-31T09:44:52;4.77;;;4.47;;
77248;SDS011;66280;45.124;20.718;2023-07-31T09:54:53;5.60;;;5.10;;
77248;SDS011;66280;45.124;20.718;2023-07-31T10:04:55;5.00;;;4.70;;
77248;SDS011;66280;45.124;20.718;2023-07-31T10:14:57;4.73;;;4.43;;
77248;SDS011;66280;45.124;20.718;2023-07-31T10:24:59;5.73;;;4.77;;
77248;SDS011;66280;45.124;20.718;2023-07-31T10:35:00;5.03;;;4.40;;
77248;SDS011;66280;45.124;20.718;2023-07-31T10:45:03;5.33;;;5.03;;
77248;SDS011;66280;45.124;20.718;2023-07-31T10:55:24;5.33;;;5.00;;
77248;SDS011;66280;45.124;20.718;2023-07-31T11:06:09;4.15;;;3.70;;
77248;SDS011;66280;45.124;20.718;2023-07-31T11:16:00;4.07;;;3.77;;
77248;SDS011;66280;45.124;20.718;2023-07-31T11:26:01;4.30;;;3.87;;
77248;SDS011;66280;45.124;20.718;2023-07-31T11:36:02;4.23;;;3.97;;
77248;SDS011;66280;45.124;20.718;2023-07-31T11:46:03;6.13;;;3.77;;
77248;SDS011;66280;45.124;20.718;2023-07-31T11:56:04;3.97;;;3.53;;
77248;SDS011;66280;45.124;20.718;2023-07-31T12:06:08;3.27;;;3.07;;
77248;SDS011;66280;45.124;20.718;2023-07-31T12:16:08;4.07;;;3.80;;
77248;SDS011;66280;45.124;20.718;2023-07-31T12:26:13;3.77;;;3.47;;
77248;SDS011;66280;45.124;20.718;2023-07-31T12:36:21;4.22;;;3.63;;
77248;SDS011;66280;45.124;20.718;2023-07-31T12:46:25;3.90;;;3.60;;
77248;SDS011;66280;45.124;20.718;2023-07-31T12:56:25;4.13;;;3.83;;
77248;SDS011;66280;45.124;20.718;2023-07-31T13:06:26;4.15;;;2.90;;
77248;SDS011;66280;45.124;20.718;2023-07-31T13:16:27;5.95;;;4.20;;
77248;SDS011;66280;45.124;20.718;2023-07-31T13:26:27;7.07;;;4.10;;
77248;SDS011;66280;45.124;20.718;2023-07-31T13:36:28;4.83;;;3.93;;
77248;SDS011;66280;45.124;20.718;2023-07-31T13:46:29;3.67;;;3.37;;
77248;SDS011;66280;45.124;20.718;2023-07-31T13:56:29;4.33;;;3.57;;
77248;SDS011;66280;45.124;20.718;2023-07-31T14:06:30;3.33;;;3.03;;
77248;SDS011;66280;45.124;20.718;2023-07-31T14:16:31;3.70;;;3.40;;
77248;SDS011;66280;45.124;20.718;2023-07-31T14:26:32;4.50;;;3.13;;
77248;SDS011;66280;45.124;20.718;2023-07-31T14:36:32;3.43;;;3.23;;
77248;SDS011;66280;45.124;20.718;2023-07-31T14:46:33;9.07;;;3.90;;
77248;SDS011;66280;45.124;20.718;2023-07-31T14:56:34;5.07;;;3.23;;
77248;SDS011;66280;45.124;20.718;2023-07-31T15:06:34;3.27;;;2.90;;
77248;SDS011;66280;45.124;20.718;2023-07-31T15:16:35;3.30;;;2.93;;
77248;SDS011;66280;45.124;20.718;2023-07-31T15:26:36;3.37;;;2.43;;
77248;SDS011;66280;45.124;20.718;2023-07-31T15:36:37;3.47;;;2.47;;
77248;SDS011;66280;45.124;20.718;2023-07-31T15:46:38;3.47;;;2.50;;
77248;SDS011;66280;45.124;20.718;2023-07-31T15:56:39;4.68;;;2.38;;
77248;SDS011;66280;45.124;20.718;2023-07-31T16:06:39;4.05;;;3.67;;
77248;SDS011;66280;45.124;20.718;2023-07-31T16:16:40;5.25;;;4.15;;
77248;SDS011;66280;45.124;20.718;2023-07-31T16:26:40;4.78;;;2.55;;
77248;SDS011;66280;45.124;20.718;2023-07-31T16:36:41;4.60;;;3.27;;
77248;SDS011;66280;45.124;20.718;2023-07-31T16:46:41;3.33;;;2.70;;
77248;SDS011;66280;45.124;20.718;2023-07-31T16:56:42;4.37;;;2.87;;
77248;SDS011;66280;45.124;20.718;2023-07-31T17:06:43;5.35;;;3.00;;
77248;SDS011;66280;45.124;20.718;2023-07-31T17:16:43;9.00;;;2.73;;
77248;SDS011;66280;45.124;20.718;2023-07-31T17:26:44;3.67;;;2.50;;
77248;SDS011;66280;45.124;20.718;2023-07-31T17:36:44;4.80;;;2.85;;
77248;SDS011;66280;45.124;20.718;2023-07-31T17:46:45;8.07;;;3.07;;
77248;SDS011;66280;45.124;20.718;2023-07-31T17:56:46;3.13;;;2.80;;
77248;SDS011;66280;45.124;20.718;2023-07-31T18:06:46;3.40;;;3.10;;
77248;SDS011;66280;45.124;20.718;2023-07-31T18:16:47;4.97;;;3.10;;
77248;SDS011;66280;45.124;20.718;2023-07-31T18:26:48;3.07;;;2.73;;
77248;SDS011;66280;45.124;20.718;2023-07-31T18:36:48;9.73;;;2.97;;
77248;SDS011;66280;45.124;20.718;2023-07-31T18:46:49;4.60;;;2.93;;
77248;SDS011;66280;45.124;20.718;2023-07-31T18:56:50;5.43;;;2.23;;
77248;SDS011;66280;45.124;20.718;2023-07-31T19:06:51;5.27;;;3.30;;
77248;SDS011;66280;45.124;20.718;2023-07-31T19:16:51;6.03;;;3.15;;
77248;SDS011;66280;45.124;20.718;2023-07-31T19:26:52;3.33;;;2.30;;
77248;SDS011;66280;45.124;20.718;2023-07-31T19:36:53;6.33;;;4.07;;
77248;SDS011;66280;45.124;20.718;2023-07-31T19:46:54;5.03;;;2.37;;
77248;SDS011;66280;45.124;20.718;2023-07-31T19:56:54;3.72;;;3.00;;
77248;SDS011;66280;45.124;20.718;2023-07-31T20:06:55;7.47;;;3.17;;
77248;SDS011;66280;45.124;20.718;2023-07-31T20:16:55;4.78;;;2.08;;
77248;SDS011;66280;45.124;20.718;2023-07-31T20:26:56;2.87;;;2.10;;
77248;SDS011;66280;45.124;20.718;2023-07-31T20:36:56;2.65;;;2.45;;
77248;SDS011;66280;45.124;20.718;2023-07-31T20:46:57;4.17;;;2.90;;
77248;SDS011;66280;45.124;20.718;2023-07-31T20:56:58;4.10;;;2.92;;
77248;SDS011;66280;45.124;20.718;2023-07-31T21:06:58;3.63;;;2.70;;
77248;SDS011;66280;45.124;20.718;2023-07-31T21:16:59;3.57;;;2.97;;
77248;SDS011;66280;45.124;20.718;2023-07-31T21:26:59;3.13;;;2.57;;
77248;SDS011;66280;45.124;20.718;2023-07-31T21:37:00;6.05;;;3.45;;
77248;SDS011;66280;45.124;20.718;2023-07-31T21:47:01;6.37;;;3.10;;
77248;SDS011;66280;45.124;20.718;2023-07-31T21:57:01;24.40;;;3.83;;
77248;SDS011;66280;45.124;20.718;2023-07-31T22:07:02;4.17;;;3.07;;
77248;SDS011;66280;45.124;20.718;2023-07-31T22:17:03;7.10;;;2.70;;
77248;SDS011;66280;45.124;20.718;2023-07-31T22:27:03;4.93;;;3.27;;
77248;SDS011;66280;45.124;20.718;2023-07-31T22:37:05;7.43;;;2.90;;
77248;SDS011;66280;45.124;20.718;2023-07-31T22:47:05;4.07;;;3.07;;
77248;SDS011;66280;45.124;20.718;2023-07-31T22:57:06;3.57;;;2.63;;
77248;SDS011;66280;45.124;20.718;2023-07-31T23:07:07;8.50;;;4.05;;
77248;SDS011;66280;45.124;20.718;2023-07-31T23:17:07;10.27;;;3.07;;
77248;SDS011;66280;45.124;20.718;2023-07-31T23:27:08;4.70;;;2.60;;
77248;SDS011;66280;45.124;20.718;2023-07-31T23:37:09;4.27;;;2.93;;
77248;SDS011;66280;45.124;20.718;2023-07-31T23:47:09;6.47;;;2.63;;
77248;SDS011;66280;45.124;20.718;2023-07-31T23:57:10;4.55;;;2.70;;
